Time;durP1;ratioP1;P1;durP2;ratioP2;P2;SDS_P1;SDS_P2;PMS_P1;PMS_P2;Temp;Humidity;BMP_temperature;BMP_pressure;BME280_temperature;BME280_humidity;BME280_pressure;Samples;Min_cycle;Max_cycle;Signal;HPM_P1;HPM_P2
2022/05/07 00:00:35;;;;;;;4.60;4.17;;;14.80;76.20;;;;;;5079979;28;20245;-87
2022/05/07 00:03:01;;;;;;;4.40;4.10;;;14.80;77.30;;;;;;5085408;28;20209;-87
2022/05/07 00:05:26;;;;;;;15.60;5.67;;;14.80;76.80;;;;;;5062816;28;20611;-87
2022/05/07 00:07:53;;;;;;;4.40;4.10;;;14.70;76.80;;;;;;5076726;28;20199;-87
2022/05/07 00:10:19;;;;;;;4.37;4.03;;;14.70;76.60;;;;;;5085168;28;20206;-87
2022/05/07 00:12:45;;;;;;;4.63;4.23;;;14.60;76.50;;;;;;5081208;28;20655;-88
2022/05/07 00:15:11;;;;;;;4.83;4.43;;;14.60;76.30;;;;;;5072054;28;20233;-86
2022/05/07 00:20:21;;;;;;;12.90;4.47;;;14.70;76.50;;;;;;5084493;28;20181;-86
2022/05/07 00:22:47;;;;;;;3.97;3.67;;;14.70;75.90;;;;;;5075451;28;20203;-87
2022/05/07 00:25:13;;;;;;;4.47;4.07;;;14.70;75.20;;;;;;5082608;28;20278;-87
2022/05/07 00:27:38;;;;;;;4.33;3.93;;;14.70;75.30;;;;;;5080227;28;20230;-87
2022/05/07 00:30:06;;;;;;;5.30;4.50;;;14.60;75.30;;;;;;5059826;28;20207;-87
2022/05/07 00:32:31;;;;;;;5.43;4.03;;;14.60;76.10;;;;;;5085798;28;21365;-86
2022/05/07 00:34:57;;;;;;;4.10;3.70;;;14.60;75.70;;;;;;5053757;28;20222;-87
2022/05/07 00:37:25;;;;;;;5.90;4.13;;;14.70;74.90;;;;;;5054583;28;20201;-86
2022/05/07 00:39:52;;;;;;;4.60;4.17;;;14.50;74.20;;;;;;5078848;28;20254;-87
2022/05/07 00:42:18;;;;;;;6.37;4.17;;;14.40;75.30;;;;;;5080564;28;20219;-87
2022/05/07 00:44:44;;;;;;;5.30;4.33;;;14.30;77.20;;;;;;5081275;28;20207;-87
2022/05/07 00:47:26;;;;;;;4.60;4.03;;;14.40;76.80;;;;;;5087943;28;20185;-87
2022/05/07 00:52:44;;;;;;;7.50;4.10;;;14.50;76.30;;;;;;5074589;28;20225;-86
2022/05/07 00:55:12;;;;;;;6.27;4.20;;;14.50;75.50;;;;;;5087527;28;20232;-87
2022/05/07 00:57:38;;;;;;;5.13;4.57;;;14.60;75.40;;;;;;5075920;28;20283;-87
2022/05/07 01:00:05;;;;;;;4.20;3.80;;;14.60;75.90;;;;;;5069390;28;20200;-86
2022/05/07 01:02:31;;;;;;;4.03;3.73;;;14.60;75.30;;;;;;5071246;28;20218;-87
2022/05/07 01:04:57;;;;;;;4.33;3.90;;;14.50;75.00;;;;;;5079953;28;20275;-87
2022/05/07 01:07:23;;;;;;;6.83;3.83;;;14.40;74.80;;;;;;5052044;28;20225;-87
2022/05/07 01:09:49;;;;;;;5.63;4.10;;;14.50;74.70;;;;;;5091653;28;20197;-87
2022/05/07 01:12:16;;;;;;;4.43;3.90;;;14.50;74.30;;;;;;5086351;28;20638;-87
2022/05/07 01:14:42;;;;;;;5.70;4.40;;;14.40;74.60;;;;;;5077285;28;20603;-87
2022/05/07 01:17:09;;;;;;;4.47;4.10;;;14.40;75.10;;;;;;5084555;28;20269;-87
2022/05/07 01:19:35;;;;;;;4.40;3.90;;;14.30;75.60;;;;;;5081521;28;20191;-87
2022/05/07 01:22:05;;;;;;;4.83;4.30;;;14.30;75.60;;;;;;5079526;28;20515;-87
2022/05/07 01:24:30;;;;;;;4.77;4.37;;;14.10;75.50;;;;;;5082843;28;20192;-87
2022/05/07 01:26:56;;;;;;;4.50;4.03;;;14.10;76.30;;;;;;5081390;28;20212;-87
2022/05/07 01:29:22;;;;;;;4.30;3.90;;;14.10;75.80;;;;;;5083983;28;20184;-87
2022/05/07 01:31:48;;;;;;;7.27;3.90;;;14.20;75.50;;;;;;5081033;28;20201;-87
2022/05/07 01:34:13;;;;;;;4.63;4.23;;;14.20;75.30;;;;;;5082191;28;20217;-86
2022/05/07 01:36:39;;;;;;;4.67;4.27;;;14.00;74.70;;;;;;5052172;28;20290;-87
2022/05/07 01:39:05;;;;;;;7.07;4.77;;;13.80;76.50;;;;;;5064041;28;20209;-86
2022/05/07 01:41:31;;;;;;;4.63;4.23;;;13.60;78.20;;;;;;5087455;28;20241;-86
2022/05/07 01:43:57;;;;;;;4.60;4.00;;;13.50;79.80;;;;;;5081738;28;20210;-87
2022/05/07 01:49:20;;;;;;;5.30;4.80;;;13.60;78.10;;;;;;5063782;28;20258;-87
2022/05/07 01:51:46;;;;;;;4.80;4.30;;;13.60;78.60;;;;;;5072596;28;20200;-87
2022/05/07 01:54:12;;;;;;;7.47;4.70;;;13.60;78.60;;;;;;5088550;28;20181;-86
2022/05/07 01:56:37;;;;;;;7.27;4.63;;;13.60;77.90;;;;;;5080609;28;20222;-86
2022/05/07 01:59:03;;;;;;;4.50;4.10;;;13.50;77.30;;;;;;5081027;28;20703;-87
2022/05/07 02:01:28;;;;;;;5.70;4.63;;;13.60;78.50;;;;;;5073198;28;20233;-87
2022/05/07 02:03:54;;;;;;;4.73;4.33;;;13.60;78.40;;;;;;5071329;28;20203;-86
2022/05/07 02:06:20;;;;;;;5.23;4.47;;;13.60;77.90;;;;;;5072714;28;20232;-86
2022/05/07 02:08:45;;;;;;;4.73;4.20;;;13.60;77.30;;;;;;5068182;28;20194;-87
2022/05/07 02:11:11;;;;;;;4.60;4.20;;;13.60;77.20;;;;;;5073380;28;20215;-87
2022/05/07 02:13:37;;;;;;;5.00;4.60;;;13.50;77.70;;;;;;5051851;28;20204;-87
2022/05/07 02:16:03;;;;;;;4.87;4.33;;;13.40;78.40;;;;;;5072898;28;20237;-87
2022/05/07 02:18:28;;;;;;;4.90;4.33;;;13.50;78.70;;;;;;5086528;28;20597;-87
2022/05/07 02:20:56;;;;;;;5.23;4.73;;;13.60;77.50;;;;;;5089089;28;20226;-87
2022/05/07 02:23:22;;;;;;;4.80;4.40;;;13.50;76.80;;;;;;5076655;28;20707;-87
2022/05/07 02:25:48;;;;;;;7.53;4.67;;;13.10;79.00;;;;;;5072837;28;20238;-87
2022/05/07 02:28:14;;;;;;;4.77;4.40;;;12.90;81.30;;;;;;5080128;28;20196;-87
2022/05/07 02:30:40;;;;;;;5.00;4.57;;;12.80;82.40;;;;;;5078185;28;20287;-87
2022/05/07 02:33:06;;;;;;;4.40;4.10;;;12.80;82.50;;;;;;5084437;28;20683;-86
2022/05/07 02:35:32;;;;;;;4.67;4.27;;;12.90;82.10;;;;;;5094826;28;20211;-86
2022/05/07 02:37:58;;;;;;;4.63;4.23;;;12.90;80.20;;;;;;5083426;28;20244;-87
2022/05/07 02:40:23;;;;;;;4.37;3.90;;;12.70;80.00;;;;;;5079288;28;20211;-86
2022/05/07 02:42:49;;;;;;;4.17;3.80;;;12.60;82.10;;;;;;5056030;28;20696;-87
2022/05/07 02:45:15;;;;;;;4.47;4.07;;;12.80;82.40;;;;;;5079095;28;20234;-86
2022/05/07 02:47:42;;;;;;;5.23;4.73;;;12.80;81.00;;;;;;5056769;28;20198;-87
2022/05/07 02:50:09;;;;;;;4.30;3.87;;;12.60;81.10;;;;;;5076194;28;20245;-87
2022/05/07 02:52:36;;;;;;;4.43;4.03;;;12.70;81.30;;;;;;5079479;28;20195;-86
2022/05/07 02:55:04;;;;;;;5.00;4.60;;;12.80;80.90;;;;;;5084818;28;20277;-86
2022/05/07 02:57:30;;;;;;;4.23;3.93;;;12.90;80.20;;;;;;5068677;28;20192;-87
2022/05/07 02:59:56;;;;;;;4.60;3.80;;;12.80;79.90;;;;;;5077896;28;20201;-87
2022/05/07 03:02:22;;;;;;;4.47;4.07;;;12.90;80.10;;;;;;5083685;28;20223;-86
2022/05/07 03:04:48;;;;;;;5.07;3.90;;;13.00;79.10;;;;;;5074656;28;20715;-87
2022/05/07 03:07:15;;;;;;;4.87;4.07;;;12.90;79.00;;;;;;5060203;28;20248;-86
2022/05/07 03:09:40;;;;;;;4.20;3.90;;;12.90;79.50;;;;;;5079100;28;20187;-87
2022/05/07 03:12:07;;;;;;;5.10;4.40;;;13.00;79.40;;;;;;5085917;28;20231;-86
2022/05/07 03:14:32;;;;;;;4.37;4.07;;;12.90;78.90;;;;;;5069835;28;20275;-87
2022/05/07 03:16:58;;;;;;;4.83;4.40;;;13.00;80.30;;;;;;5075725;28;20672;-87
2022/05/07 03:19:24;;;;;;;6.93;4.03;;;13.00;78.50;;;;;;5071367;28;20971;-87
2022/05/07 03:21:50;;;;;;;4.07;3.67;;;13.00;78.30;;;;;;5082188;28;20227;-87
2022/05/07 03:24:16;;;;;;;4.47;4.13;;;13.10;78.20;;;;;;5070667;28;20172;-86
2022/05/07 03:26:42;;;;;;;4.90;3.97;;;13.00;77.10;;;;;;5057985;28;20691;-87
2022/05/07 03:29:08;;;;;;;5.33;3.90;;;12.80;78.20;;;;;;5089056;28;20270;-87
2022/05/07 03:31:34;;;;;;;4.20;3.80;;;12.70;78.90;;;;;;5075214;28;20270;-87
2022/05/07 03:33:59;;;;;;;4.27;3.83;;;12.70;79.10;;;;;;5061392;28;20553;-87
2022/05/07 03:36:25;;;;;;;4.23;3.83;;;12.70;78.70;;;;;;5084983;28;20230;-87
2022/05/07 03:38:51;;;;;;;4.57;4.17;;;12.80;78.70;;;;;;5086034;28;20278;-87
2022/05/07 03:41:19;;;;;;;5.43;4.20;;;12.70;77.80;;;;;;5078748;28;20286;-86
2022/05/07 03:43:44;;;;;;;4.73;3.90;;;12.60;78.50;;;;;;5048765;28;20188;-87
2022/05/07 03:46:10;;;;;;;6.33;4.13;;;12.70;79.30;;;;;;5057567;28;20207;-87
2022/05/07 03:48:36;;;;;;;4.10;3.77;;;12.60;78.70;;;;;;5078557;28;20188;-87
2022/05/07 03:51:03;;;;;;;5.30;3.97;;;12.70;78.70;;;;;;5085357;28;20187;-87
2022/05/07 03:53:31;;;;;;;4.00;3.60;;;12.70;77.80;;;;;;5083703;28;20187;-86
2022/05/07 03:56:07;;;;;;;4.43;3.80;;;12.60;79.10;;;;;;5081846;28;20221;-87
2022/05/07 03:58:34;;;;;;;4.10;3.70;;;12.60;78.20;;;;;;5072366;28;20226;-87
2022/05/07 04:01:00;;;;;;;6.00;3.87;;;12.60;78.20;;;;;;5052564;28;20215;-87
2022/05/07 04:03:27;;;;;;;4.60;4.00;;;12.60;77.30;;;;;;5056081;28;20194;-87
2022/05/07 04:05:54;;;;;;;4.43;4.03;;;12.60;78.10;;;;;;5056807;28;20215;-87
2022/05/07 04:08:21;;;;;;;4.03;3.73;;;12.50;78.60;;;;;;5070891;28;20309;-86
2022/05/07 04:10:46;;;;;;;4.53;4.10;;;12.50;78.50;;;;;;5073297;28;20192;-86
2022/05/07 04:13:12;;;;;;;5.10;4.70;;;12.50;78.60;;;;;;5086914;28;20197;-87
2022/05/07 04:15:39;;;;;;;5.10;3.90;;;12.60;78.00;;;;;;5086889;28;20214;-87
2022/05/07 04:18:07;;;;;;;5.20;4.30;;;12.50;78.20;;;;;;5074221;28;20208;-87
2022/05/07 04:20:34;;;;;;;4.73;4.33;;;12.60;78.40;;;;;;5072548;28;20196;-87
2022/05/07 04:23:00;;;;;;;4.73;4.33;;;12.60;78.40;;;;;;5077210;28;20193;-87
2022/05/07 04:25:26;;;;;;;4.90;4.50;;;12.50;78.20;;;;;;5080295;28;20213;-86
2022/05/07 04:27:53;;;;;;;4.60;4.20;;;12.60;78.20;;;;;;5072468;28;20195;-86
2022/05/07 04:30:20;;;;;;;5.53;4.77;;;12.50;78.30;;;;;;5079834;28;20178;-87
2022/05/07 04:32:45;;;;;;;7.40;4.57;;;12.50;78.80;;;;;;5078209;28;20201;-87
2022/05/07 04:35:11;;;;;;;4.70;4.40;;;12.50;78.30;;;;;;5098398;28;20208;-87
2022/05/07 04:37:37;;;;;;;5.27;3.87;;;12.50;78.30;;;;;;5076398;28;20574;-87
2022/05/07 04:40:03;;;;;;;4.60;4.20;;;12.50;78.50;;;;;;5067058;28;20205;-87
2022/05/07 04:42:29;;;;;;;4.33;3.80;;;12.40;78.10;;;;;;5074223;28;20218;-86
2022/05/07 04:44:54;;;;;;;4.40;4.00;;;12.40;79.00;;;;;;5073720;28;20739;-87
2022/05/07 04:47:20;;;;;;;4.90;4.27;;;12.40;79.60;;;;;;5059030;28;20195;-87
2022/05/07 04:49:46;;;;;;;4.60;4.20;;;12.30;80.10;;;;;;5054870;28;20209;-87
2022/05/07 04:52:11;;;;;;;4.53;4.17;;;12.30;80.20;;;;;;5054252;28;20229;-87
2022/05/07 04:54:38;;;;;;;4.33;4.03;;;12.40;79.90;;;;;;5088887;28;20236;-87
2022/05/07 04:57:04;;;;;;;4.27;3.57;;;12.40;80.00;;;;;;5090075;28;20689;-86
2022/05/07 04:59:30;;;;;;;4.30;3.90;;;12.40;80.60;;;;;;5088809;28;20186;-86
2022/05/07 05:01:56;;;;;;;4.90;4.50;;;12.40;80.60;;;;;;5083538;28;20230;-86
2022/05/07 05:04:22;;;;;;;4.20;3.90;;;12.40;80.60;;;;;;5079518;28;20554;-86
2022/05/07 05:06:47;;;;;;;4.50;4.20;;;12.30;81.60;;;;;;5075622;28;20187;-86
2022/05/07 05:09:13;;;;;;;4.47;4.07;;;12.40;81.60;;;;;;5075238;28;20220;-87
2022/05/07 05:11:39;;;;;;;4.93;4.50;;;12.40;82.10;;;;;;5077806;28;20190;-87
2022/05/07 05:15:01;;;;;;;4.83;4.20;;;12.50;82.00;;;;;;5083415;28;20270;-87
2022/05/07 05:16:52;;;;;;;4.63;4.30;;;12.50;81.80;;;;;;5080663;28;20191;-87
2022/05/07 05:19:18;;;;;;;4.40;4.00;;;12.50;81.90;;;;;;5079852;28;20194;-87
2022/05/07 05:21:43;;;;;;;4.47;4.10;;;12.60;81.90;;;;;;5057244;28;20215;-87
2022/05/07 05:24:09;;;;;;;4.40;4.00;;;12.70;82.10;;;;;;5082380;28;20204;-87
2022/05/07 05:26:35;;;;;;;4.93;4.53;;;12.70;81.80;;;;;;5079974;28;20214;-87
2022/05/07 05:29:01;;;;;;;7.97;4.90;;;12.70;81.60;;;;;;5090717;28;20185;-87
2022/05/07 05:31:30;;;;;;;4.63;4.23;;;12.70;80.70;;;;;;5086124;28;20187;-87
2022/05/07 05:33:59;;;;;;;4.47;4.07;;;12.80;81.50;;;;;;5079736;28;20183;-87
2022/05/07 05:36:26;;;;;;;4.73;4.30;;;12.90;81.80;;;;;;5077309;28;20198;-88
2022/05/07 05:38:53;;;;;;;4.47;4.07;;;12.90;81.40;;;;;;5066773;28;20268;-89
2022/05/07 05:41:19;;;;;;;4.70;4.30;;;13.00;81.10;;;;;;5058815;28;20233;-87
2022/05/07 05:43:46;;;;;;;5.57;4.10;;;13.00;81.10;;;;;;5094917;28;20660;-88
2022/05/07 05:46:12;;;;;;;5.67;4.30;;;13.00;81.60;;;;;;5077559;28;20204;-89
2022/05/07 05:48:37;;;;;;;4.23;3.83;;;13.00;81.90;;;;;;5083773;28;20676;-87
2022/05/07 05:51:04;;;;;;;6.03;4.27;;;13.00;81.90;;;;;;5070021;28;20200;-86
2022/05/07 05:53:31;;;;;;;4.40;4.00;;;13.10;81.50;;;;;;5061218;28;20193;-87
2022/05/07 05:55:58;;;;;;;5.10;4.30;;;13.20;80.20;;;;;;5073327;28;20692;-87
2022/05/07 05:58:24;;;;;;;4.70;4.30;;;13.40;78.90;;;;;;5058436;28;20195;-87
2022/05/07 06:00:52;;;;;;;5.07;4.57;;;13.40;78.40;;;;;;5091280;28;20256;-86
2022/05/07 06:03:19;;;;;;;5.83;4.43;;;13.50;78.20;;;;;;5087266;28;20195;-85
2022/05/07 06:05:44;;;;;;;4.83;4.30;;;13.60;78.70;;;;;;5078679;28;20338;-87
2022/05/07 06:08:12;;;;;;;5.17;4.60;;;13.60;78.90;;;;;;5085896;28;20260;-87
2022/05/07 06:10:38;;;;;;;5.30;4.57;;;13.70;78.70;;;;;;5085052;28;20252;-85
2022/05/07 06:13:03;;;;;;;5.93;5.43;;;13.70;77.40;;;;;;5087048;28;20198;-85
2022/05/07 06:15:29;;;;;;;5.40;5.00;;;13.80;77.30;;;;;;5086075;28;20224;-87
2022/05/07 06:17:55;;;;;;;5.50;4.97;;;13.80;77.00;;;;;;5066412;28;20683;-85
2022/05/07 06:20:20;;;;;;;5.27;4.77;;;13.80;76.90;;;;;;5079038;28;20199;-85
2022/05/07 06:22:46;;;;;;;5.70;4.80;;;13.90;76.20;;;;;;5059474;28;20212;-86
2022/05/07 06:27:56;;;;;;;6.17;5.20;;;14.10;76.80;;;;;;5078984;28;20223;-84
2022/05/07 06:30:22;;;;;;;7.37;6.00;;;14.00;76.10;;;;;;5077309;28;20223;-87
2022/05/07 06:32:47;;;;;;;5.90;5.40;;;14.10;76.40;;;;;;5079292;28;20206;-87
2022/05/07 06:35:13;;;;;;;6.53;5.37;;;14.10;77.20;;;;;;5085415;28;20233;-86
2022/05/07 06:37:40;;;;;;;7.23;6.50;;;14.20;77.80;;;;;;5077948;28;20198;-86
2022/05/07 06:40:08;;;;;;;6.80;6.20;;;14.20;78.70;;;;;;5076449;28;20366;-87
2022/05/07 06:42:35;;;;;;;6.97;6.30;;;14.10;80.30;;;;;;5084759;28;20806;-87
2022/05/07 06:45:01;;;;;;;6.47;5.93;;;14.10;80.70;;;;;;5055329;28;20581;-86
2022/05/07 06:47:27;;;;;;;6.97;6.23;;;14.30;80.50;;;;;;5077963;28;20281;-86
2022/05/07 06:49:52;;;;;;;6.67;5.97;;;14.30;80.90;;;;;;5052954;28;20245;-85
2022/05/07 06:52:18;;;;;;;8.17;6.20;;;14.30;82.00;;;;;;5067789;28;20191;-85
2022/05/07 06:54:44;;;;;;;7.47;6.73;;;14.40;82.10;;;;;;5076393;28;20254;-86
2022/05/07 06:57:10;;;;;;;8.23;6.70;;;14.50;81.10;;;;;;5067801;28;20268;-85
2022/05/07 06:59:36;;;;;;;7.70;6.43;;;14.50;80.70;;;;;;5086142;28;20671;-86
2022/05/07 07:02:03;;;;;;;7.80;6.43;;;14.40;81.40;;;;;;5077443;28;20203;-85
2022/05/07 07:04:28;;;;;;;7.37;6.57;;;14.40;82.60;;;;;;5097079;28;20169;-85
2022/05/07 07:06:54;;;;;;;7.30;6.60;;;14.40;84.90;;;;;;5096078;28;20251;-86
2022/05/07 07:09:20;;;;;;;7.43;6.57;;;14.50;84.40;;;;;;5100401;28;20493;-85
2022/05/07 07:11:46;;;;;;;7.13;6.50;;;14.50;84.60;;;;;;5086065;28;20252;-86
2022/05/07 07:14:12;;;;;;;7.47;6.77;;;14.60;83.20;;;;;;5076473;28;20209;-86
2022/05/07 07:16:44;;;;;;;6.83;6.23;;;14.70;82.30;;;;;;5081055;28;20252;-85
2022/05/07 07:19:10;;;;;;;7.47;6.77;;;14.90;81.00;;;;;;5081907;28;20254;-85
2022/05/07 07:21:36;;;;;;;7.40;6.57;;;14.90;79.60;;;;;;5089935;28;20607;-85
2022/05/07 07:24:01;;;;;;;8.20;7.33;;;15.10;79.30;;;;;;5073730;28;20205;-86
2022/05/07 07:26:27;;;;;;;6.87;6.27;;;15.20;79.40;;;;;;5085875;28;20207;-86
2022/05/07 07:28:53;;;;;;;8.13;6.20;;;15.30;76.40;;;;;;5078209;28;20266;-86
2022/05/07 07:31:19;;;;;;;7.10;6.43;;;15.40;74.60;;;;;;5088053;28;20223;-87
2022/05/07 07:33:45;;;;;;;6.77;6.17;;;15.50;74.10;;;;;;5084663;28;20187;-86
2022/05/07 07:36:14;;;;;;;7.57;6.50;;;15.60;70.30;;;;;;5076537;28;20267;-86
2022/05/07 07:38:40;;;;;;;8.70;7.90;;;15.80;70.80;;;;;;5070555;28;20233;-87
2022/05/07 07:41:06;;;;;;;7.17;6.50;;;15.80;70.70;;;;;;5078410;28;20220;-87
2022/05/07 07:43:32;;;;;;;6.13;5.63;;;16.00;70.70;;;;;;5076685;28;20176;-86
2022/05/07 07:48:42;;;;;;;5.47;5.07;;;16.30;68.70;;;;;;5088486;28;20329;-87
2022/05/07 07:51:08;;;;;;;5.73;5.23;;;16.50;66.30;;;;;;5070160;28;20679;-87
2022/05/07 07:53:36;;;;;;;6.30;5.70;;;16.60;66.20;;;;;;5066287;28;20206;-86
2022/05/07 07:56:03;;;;;;;6.07;5.57;;;16.80;66.20;;;;;;5085388;28;20223;-86
2022/05/07 07:58:29;;;;;;;6.13;5.63;;;16.90;66.20;;;;;;5064474;28;20204;-85
2022/05/07 08:00:55;;;;;;;6.27;5.40;;;17.00;63.90;;;;;;5080071;28;20209;-86
2022/05/07 08:03:21;;;;;;;7.20;5.40;;;17.10;63.90;;;;;;5084476;28;20197;-86
2022/05/07 08:05:49;;;;;;;5.43;4.93;;;17.20;63.20;;;;;;5081306;28;20350;-86
2022/05/07 08:13:46;;;;;;;5.83;5.10;;;17.40;58.90;;;;;;5088074;28;20256;-87
2022/05/07 08:16:13;;;;;;;6.50;4.33;;;17.50;60.70;;;;;;5078157;28;20203;-86
2022/05/07 08:18:40;;;;;;;11.10;4.90;;;17.60;59.60;;;;;;5069001;28;20204;-86
2022/05/07 08:21:08;;;;;;;13.10;5.47;;;17.80;59.50;;;;;;5075637;28;20207;-87
2022/05/07 08:23:34;;;;;;;5.10;4.60;;;17.80;57.80;;;;;;5069844;28;20645;-86
2022/05/07 08:26:02;;;;;;;6.03;4.70;;;17.90;56.90;;;;;;5069001;28;20630;-86
2022/05/07 08:28:29;;;;;;;6.87;4.80;;;17.90;58.40;;;;;;5079782;28;20178;-86
2022/05/07 08:30:54;;;;;;;6.30;4.50;;;18.30;57.00;;;;;;5085352;28;20189;-86
2022/05/07 08:33:21;;;;;;;5.57;5.07;;;18.40;54.90;;;;;;5085382;28;20180;-87
2022/05/07 08:35:47;;;;;;;5.60;4.45;;;18.40;55.90;;;;;;5078248;28;20293;-87
2022/05/07 08:38:13;;;;;;;5.38;4.43;;;18.50;56.40;;;;;;5075578;28;20217;-86
2022/05/07 08:40:42;;;;;;;4.57;3.92;;;18.60;56.70;;;;;;5074012;28;20186;-86
2022/05/07 08:43:08;;;;;;;6.75;4.20;;;18.70;55.40;;;;;;5074019;28;20855;-86
2022/05/07 08:45:40;;;;;;;5.30;4.22;;;18.80;56.80;;;;;;5080832;28;20244;-85
2022/05/07 08:48:06;;;;;;;4.57;4.00;;;19.00;53.60;;;;;;5079812;28;20672;-85
2022/05/07 08:50:32;;;;;;;6.05;4.53;;;19.20;53.50;;;;;;5069724;28;20201;-86
2022/05/07 08:52:58;;;;;;;3.95;3.67;;;19.40;54.00;;;;;;5084957;28;20191;-85
2022/05/07 08:55:24;;;;;;;6.22;4.50;;;19.50;53.20;;;;;;5072133;28;20431;-86
2022/05/07 08:57:52;;;;;;;5.32;4.57;;;19.60;51.80;;;;;;5078517;28;20690;-86
2022/05/07 09:00:20;;;;;;;4.05;3.65;;;19.60;52.30;;;;;;5069819;28;20192;-85
2022/05/07 09:02:51;;;;;;;4.22;3.92;;;19.70;51.90;;;;;;5082118;28;20210;-86
2022/05/07 09:05:19;;;;;;;5.60;4.32;;;19.90;51.50;;;;;;5073776;28;20285;-86
2022/05/07 09:07:52;;;;;;;4.40;4.00;;;20.00;50.90;;;;;;5081424;28;20187;-85
2022/05/07 09:10:21;;;;;;;4.00;3.70;;;20.20;48.50;;;;;;5074840;28;20178;-86
2022/05/07 09:12:47;;;;;;;19.75;15.95;;;20.20;49.10;;;;;;5069149;28;20191;-86
2022/05/07 09:15:13;;;;;;;4.40;4.00;;;20.30;50.70;;;;;;5068815;28;20829;-85
2022/05/07 09:17:38;;;;;;;4.47;3.97;;;20.50;49.10;;;;;;5062709;28;20204;-85
2022/05/07 09:20:12;;;;;;;4.20;3.80;;;20.60;48.10;;;;;;5049947;28;20280;-86
2022/05/07 09:22:53;;;;;;;4.28;3.88;;;20.70;48.30;;;;;;5079173;28;20206;-86
2022/05/07 09:25:24;;;;;;;3.78;3.47;;;20.90;48.20;;;;;;5082113;28;20197;-85
2022/05/07 09:27:51;;;;;;;4.25;3.90;;;21.10;47.30;;;;;;5077159;28;20180;-86
2022/05/07 09:30:27;;;;;;;5.57;3.83;;;21.10;46.00;;;;;;5072759;28;20176;-85
2022/05/07 09:32:57;;;;;;;4.47;4.00;;;21.00;45.50;;;;;;5078683;28;20201;-86
2022/05/07 09:38:12;;;;;;;4.53;3.75;;;21.40;46.20;;;;;;5073308;28;20977;-87
2022/05/07 09:40:40;;;;;;;4.10;3.70;;;21.30;44.90;;;;;;5062351;28;20280;-85
2022/05/07 09:43:08;;;;;;;4.55;3.70;;;21.70;43.90;;;;;;5074635;28;20346;-86
2022/05/07 09:45:35;;;;;;;4.72;3.60;;;21.80;43.60;;;;;;5078743;28;20203;-86
2022/05/07 09:48:01;;;;;;;3.78;3.47;;;21.80;42.50;;;;;;5075887;28;20205;-85
2022/05/07 09:58:40;;;;;;;4.60;3.50;;;22.30;40.50;;;;;;5072418;28;20694;-87
2022/05/07 10:01:21;;;;;;;5.65;3.90;;;22.60;40.60;;;;;;5055051;28;20306;-86
2022/05/07 10:04:06;;;;;;;11.60;3.97;;;22.70;38.60;;;;;;5077615;28;20174;-86
2022/05/07 10:06:50;;;;;;;8.20;3.65;;;22.80;39.50;;;;;;5064974;28;20203;-86
2022/05/07 10:09:23;;;;;;;7.63;3.70;;;22.80;39.20;;;;;;5083185;28;20268;-87
2022/05/07 10:11:57;;;;;;;6.28;3.38;;;22.80;39.20;;;;;;5080141;28;20193;-86
2022/05/07 10:14:29;;;;;;;3.55;3.10;;;22.80;39.00;;;;;;5071767;28;20199;-87
2022/05/07 10:17:08;;;;;;;5.95;3.30;;;23.10;38.90;;;;;;5082493;28;20218;-86
2022/05/07 10:19:45;;;;;;;5.88;3.38;;;22.80;38.20;;;;;;5076149;28;20677;-86
2022/05/07 10:22:21;;;;;;;3.40;3.10;;;23.10;36.90;;;;;;5054867;28;20207;-85
2022/05/07 10:25:01;;;;;;;3.53;3.00;;;23.20;34.20;;;;;;5082508;28;20203;-86
2022/05/07 10:27:31;;;;;;;3.78;3.08;;;23.20;35.30;;;;;;5082732;28;20201;-86
2022/05/07 10:30:14;;;;;;;4.43;3.20;;;23.50;36.10;;;;;;5073988;28;20180;-87
2022/05/07 10:32:57;;;;;;;3.92;3.05;;;23.50;33.70;;;;;;5077135;28;20643;-86
2022/05/07 10:35:47;;;;;;;3.00;2.80;;;23.60;36.30;;;;;;5075401;28;20211;-86
2022/05/07 10:38:27;;;;;;;3.53;2.92;;;23.60;35.80;;;;;;5070489;28;20187;-86
2022/05/07 10:40:58;;;;;;;4.28;3.10;;;24.10;34.20;;;;;;5078575;28;20869;-86
2022/05/07 10:43:38;;;;;;;4.40;2.83;;;24.50;35.60;;;;;;5076209;28;20198;-85
2022/05/07 10:46:09;;;;;;;4.45;3.28;;;24.50;33.10;;;;;;5070921;28;20196;-84
2022/05/07 10:48:56;;;;;;;4.90;3.28;;;24.00;33.60;;;;;;5072343;28;20187;-86
2022/05/07 10:51:34;;;;;;;4.05;3.00;;;23.10;35.20;;;;;;5079025;28;20695;-85
2022/05/07 10:54:03;;;;;;;4.40;2.70;;;23.20;35.60;;;;;;5071831;28;20257;-85
2022/05/07 10:56:33;;;;;;;3.63;2.55;;;23.50;34.20;;;;;;5072394;28;20210;-87
2022/05/07 10:59:00;;;;;;;3.47;3.17;;;23.90;33.00;;;;;;5080394;28;20659;-85
2022/05/07 11:01:28;;;;;;;3.95;3.35;;;24.00;33.50;;;;;;5073664;28;20210;-86
2022/05/07 11:04:06;;;;;;;4.03;2.90;;;24.40;33.10;;;;;;5060123;28;20914;-86
2022/05/07 11:06:43;;;;;;;4.18;3.13;;;24.80;33.40;;;;;;5086701;28;20203;-87
2022/05/07 11:09:20;;;;;;;3.13;2.80;;;25.30;31.50;;;;;;5077796;28;20650;-85
2022/05/07 11:11:49;;;;;;;3.35;2.90;;;25.30;31.00;;;;;;5076920;28;20236;-86
2022/05/07 11:14:28;;;;;;;3.08;2.78;;;25.30;31.40;;;;;;5073671;28;20183;-86
2022/05/07 11:16:55;;;;;;;3.55;3.25;;;25.40;30.20;;;;;;5052541;28;20190;-86
2022/05/07 11:19:26;;;;;;;6.25;3.00;;;25.20;30.20;;;;;;5069705;28;20227;-86
2022/05/07 11:21:53;;;;;;;3.10;2.80;;;25.30;30.40;;;;;;5069662;28;20203;-86
2022/05/07 11:24:21;;;;;;;3.00;2.70;;;25.60;29.80;;;;;;5077646;28;20183;-86
2022/05/07 11:26:58;;;;;;;3.92;2.90;;;25.50;30.20;;;;;;5060062;28;20198;-86
2022/05/07 11:29:25;;;;;;;3.50;3.08;;;25.80;28.60;;;;;;5069357;28;20891;-87
2022/05/07 11:31:57;;;;;;;3.90;2.92;;;25.60;29.30;;;;;;5076805;28;20194;-86
2022/05/07 11:34:34;;;;;;;3.10;2.75;;;25.60;29.70;;;;;;5065049;28;20539;-86
2022/05/07 11:37:21;;;;;;;4.55;3.25;;;25.80;29.00;;;;;;5069963;28;20183;-87
2022/05/07 11:39:58;;;;;;;5.03;3.08;;;25.90;28.60;;;;;;5071251;28;20176;-85
2022/05/07 11:42:39;;;;;;;3.45;2.88;;;26.00;28.90;;;;;;5054395;28;20300;-87
2022/05/07 11:45:25;;;;;;;4.15;2.80;;;26.00;29.50;;;;;;5070944;28;20203;-86
2022/05/07 11:48:00;;;;;;;3.35;3.00;;;25.80;28.80;;;;;;5068619;28;20187;-87
2022/05/07 11:50:28;;;;;;;3.45;2.85;;;26.10;29.40;;;;;;5073696;28;20849;-86
2022/05/07 11:52:55;;;;;;;3.72;2.72;;;26.20;29.40;;;;;;5073743;28;20277;-88
2022/05/07 11:55:29;;;;;;;5.45;3.10;;;26.40;29.00;;;;;;5068990;28;20210;-86
2022/05/07 11:57:56;;;;;;;4.18;3.00;;;26.50;28.50;;;;;;5072211;28;20194;-86
2022/05/07 12:00:27;;;;;;;4.50;2.92;;;26.10;28.70;;;;;;5076444;28;20179;-85
2022/05/07 12:03:00;;;;;;;3.95;3.50;;;26.30;28.80;;;;;;5068763;28;20199;-87
2022/05/07 12:05:37;;;;;;;4.43;3.00;;;26.70;28.50;;;;;;5068821;28;20237;-86
2022/05/07 12:08:18;;;;;;;3.78;2.97;;;26.50;29.00;;;;;;5071507;28;20190;-86
2022/05/07 12:10:45;;;;;;;5.88;3.15;;;25.90;29.90;;;;;;5080284;28;20176;-87
2022/05/07 12:13:14;;;;;;;3.50;3.20;;;25.70;30.00;;;;;;5076359;28;20183;-86
2022/05/07 12:18:24;;;;;;;3.50;3.20;;;25.70;30.10;;;;;;5071605;28;20228;-89
2022/05/07 12:20:51;;;;;;;4.18;3.33;;;25.30;30.10;;;;;;5075058;28;20183;-89
2022/05/07 12:31:29;;;;;;;6.47;3.55;;;25.60;31.90;;;;;;5068222;28;20274;-88
2022/05/07 12:33:55;;;;;;;9.07;3.40;;;25.00;32.70;;;;;;5077168;28;20278;-89
2022/05/07 12:36:21;;;;;;;10.52;3.58;;;24.90;34.70;;;;;;5072157;28;20205;-89
2022/05/07 12:38:47;;;;;;;8.15;3.90;;;24.80;34.70;;;;;;5070931;28;20192;-89
2022/05/07 12:41:13;;;;;;;4.18;3.80;;;24.60;34.70;;;;;;5071591;28;20213;-88
2022/05/07 12:43:39;;;;;;;4.93;3.42;;;24.40;35.20;;;;;;5073753;28;20183;-89
2022/05/07 12:46:05;;;;;;;7.53;3.70;;;24.70;35.00;;;;;;5080980;28;20207;-89
2022/05/07 12:48:32;;;;;;;5.05;3.63;;;24.90;35.00;;;;;;5073989;28;20930;-88
2022/05/07 12:50:58;;;;;;;3.95;3.55;;;25.00;33.80;;;;;;5070274;28;20774;-85
2022/05/07 12:53:23;;;;;;;4.95;3.08;;;25.80;32.30;;;;;;5067767;28;20183;-85
2022/05/07 12:55:49;;;;;;;3.83;2.70;;;25.80;30.90;;;;;;5076035;28;20207;-85
2022/05/07 12:58:15;;;;;;;3.75;3.30;;;25.60;30.70;;;;;;5080496;28;20234;-86
2022/05/07 13:00:41;;;;;;;3.65;3.30;;;25.30;32.10;;;;;;5081139;28;20205;-86
2022/05/07 13:03:08;;;;;;;3.58;2.92;;;25.60;31.10;;;;;;5085525;28;20279;-85
2022/05/07 13:05:35;;;;;;;3.50;3.13;;;25.80;30.20;;;;;;5067892;28;20908;-85
2022/05/07 13:08:05;;;;;;;4.18;3.55;;;26.40;30.50;;;;;;5074473;28;20179;-85
2022/05/07 13:10:33;;;;;;;4.30;3.50;;;26.20;31.60;;;;;;5087252;28;20909;-85
2022/05/07 13:13:02;;;;;;;8.77;3.65;;;26.60;32.60;;;;;;5074394;28;20211;-85
2022/05/07 13:15:29;;;;;;;4.07;3.40;;;26.90;29.50;;;;;;5057341;28;20233;-88
2022/05/07 13:17:57;;;;;;;4.38;3.70;;;27.50;29.90;;;;;;5052927;28;20199;-88
2022/05/07 13:20:27;;;;;;;4.05;3.65;;;27.40;30.90;;;;;;5051565;28;20222;-88
2022/05/07 13:22:53;;;;;;;4.90;3.95;;;27.10;30.90;;;;;;5079769;28;20222;-88
2022/05/07 13:25:20;;;;;;;6.07;5.00;;;26.50;31.90;;;;;;5076206;28;20207;-88
2022/05/07 13:27:47;;;;;;;6.38;3.63;;;25.90;31.90;;;;;;5080428;28;20601;-88
2022/05/07 13:30:14;;;;;;;4.88;3.85;;;26.60;31.50;;;;;;5082312;28;20858;-87